createdAt,value
2019-01-24T00:01:46.452Z,-0.70
2019-01-24T00:04:16.873Z,-0.60
2019-01-24T00:06:44.902Z,-0.60
2019-01-24T00:09:13.748Z,-0.50
2019-01-24T00:11:42.620Z,-0.60
2019-01-24T00:14:12.208Z,-0.60
2019-01-24T00:16:41.042Z,-0.50
2019-01-24T00:19:09.894Z,-0.60
2019-01-24T00:21:38.747Z,-0.60
2019-01-24T00:24:07.614Z,-0.70
2019-01-24T00:26:36.454Z,-0.70
2019-01-24T00:29:05.332Z,-0.70
2019-01-24T00:31:34.167Z,-0.70
2019-01-24T00:34:02.980Z,-0.70
2019-01-24T00:36:31.810Z,-0.60
2019-01-24T00:39:00.647Z,-0.70
2019-01-24T00:41:29.502Z,-0.70
2019-01-24T00:43:59.080Z,-0.70
2019-01-24T00:46:27.916Z,-0.60
2019-01-24T00:48:56.774Z,-0.60
2019-01-24T00:51:25.644Z,-0.60
2019-01-24T00:53:54.456Z,-0.70
2019-01-24T00:58:53.526Z,-0.80
2019-01-24T01:01:22.356Z,-0.80
2019-01-24T01:03:51.224Z,-0.80
2019-01-24T01:06:20.072Z,-0.60
2019-01-24T01:08:48.920Z,-0.70
2019-01-24T01:11:17.828Z,-0.70
2019-01-24T01:13:46.654Z,-0.80
2019-01-24T01:16:15.488Z,-0.80
2019-01-24T01:21:13.786Z,-0.70
2019-01-24T01:23:42.630Z,-0.70
2019-01-24T01:26:11.458Z,-0.70
2019-01-24T01:28:40.300Z,-0.70
2019-01-24T01:31:09.149Z,-0.80
2019-01-24T01:33:37.991Z,-0.80
2019-01-24T01:36:06.878Z,-0.80
2019-01-24T01:38:36.438Z,-0.80
2019-01-24T01:41:05.291Z,-0.80
2019-01-24T01:43:34.144Z,-0.70
2019-01-24T01:46:02.986Z,-0.80
2019-01-24T01:51:01.275Z,-0.90
2019-01-24T01:53:30.130Z,-0.90
2019-01-24T01:55:58.999Z,-0.90
2019-01-24T01:58:27.846Z,-0.90
2019-01-24T02:00:56.684Z,-0.90
2019-01-24T02:03:25.536Z,-0.90
2019-01-24T02:05:54.392Z,-0.80
2019-01-24T02:08:23.248Z,-0.80
2019-01-24T02:10:52.107Z,-0.80
2019-01-24T02:13:20.981Z,-0.80
2019-01-24T02:15:49.806Z,-0.80
2019-01-24T02:18:18.658Z,-0.80
2019-01-24T02:20:47.518Z,-0.90
2019-01-24T02:23:16.356Z,-0.80
2019-01-24T02:25:45.201Z,-0.90
2019-01-24T02:28:14.050Z,-0.90
2019-01-24T02:30:42.940Z,-0.90
2019-01-24T02:35:41.233Z,-0.80
2019-01-24T02:38:10.056Z,-0.70
2019-01-24T02:40:38.926Z,-0.80
2019-01-24T02:43:07.814Z,-0.90
2019-01-24T02:45:36.623Z,-0.90
2019-01-24T02:48:05.472Z,-0.90
2019-01-24T02:50:34.333Z,-0.90
2019-01-24T02:53:03.171Z,-0.90
2019-01-24T02:55:32.020Z,-0.90
2019-01-24T02:58:00.865Z,-0.90
2019-01-24T03:00:29.706Z,-0.80
2019-01-24T03:02:59.292Z,-0.90
2019-01-24T03:05:28.132Z,-0.90
2019-01-24T03:07:56.973Z,-0.90
2019-01-24T03:10:25.813Z,-0.90
2019-01-24T03:12:54.651Z,-0.90
2019-01-24T03:15:24.234Z,-1.00
2019-01-24T03:17:53.069Z,-1.00
2019-01-24T03:20:22.649Z,-1.00
2019-01-24T03:22:51.527Z,-1.00
2019-01-24T03:25:20.331Z,-1.00
2019-01-24T03:27:49.183Z,-1.00
2019-01-24T03:30:18.018Z,-1.00
2019-01-24T03:32:46.861Z,-0.90
2019-01-24T03:35:16.611Z,-1.00
2019-01-24T03:37:45.443Z,-1.00
2019-01-24T03:40:14.292Z,-1.00
2019-01-24T03:42:43.131Z,-1.00
2019-01-24T03:45:11.977Z,-1.00
2019-01-24T03:47:41.549Z,-1.00
2019-01-24T03:50:14.154Z,-1.00
2019-01-24T03:52:43.015Z,-1.00
2019-01-24T03:55:11.852Z,-1.00
2019-01-24T03:57:41.443Z,-1.00
2019-01-24T04:00:10.297Z,-1.00
2019-01-24T04:02:39.127Z,-1.00
2019-01-24T04:05:11.913Z,-1.00
2019-01-24T04:07:36.831Z,-0.90
2019-01-24T04:10:05.688Z,-1.00
2019-01-24T04:12:35.315Z,-1.00
2019-01-24T04:15:04.129Z,-1.00
2019-01-24T04:17:32.965Z,-0.90
2019-01-24T04:20:02.551Z,-0.90
2019-01-24T04:22:31.385Z,-0.90
2019-01-24T04:25:00.231Z,-0.90
2019-01-24T04:27:29.088Z,-0.90
2019-01-24T04:29:57.956Z,-0.80
2019-01-24T04:32:26.821Z,-0.90
2019-01-24T04:34:55.683Z,-1.00
2019-01-24T04:37:24.532Z,-0.90
2019-01-24T04:39:53.364Z,-0.90
2019-01-24T04:42:22.195Z,-0.90
2019-01-24T04:44:51.781Z,-0.90
2019-01-24T04:47:20.615Z,-0.90
2019-01-24T04:49:49.471Z,-0.90
2019-01-24T04:52:19.061Z,-1.00
2019-01-24T04:54:47.897Z,-0.90
2019-01-24T04:57:16.741Z,-0.90
2019-01-24T04:59:45.593Z,-0.90
2019-01-24T05:02:14.439Z,-0.90
2019-01-24T05:04:44.028Z,-0.90
2019-01-24T05:09:43.039Z,-1.00
2019-01-24T05:12:11.890Z,-1.00
2019-01-24T05:14:40.731Z,-1.00
2019-01-24T05:17:10.313Z,-1.00
2019-01-24T05:19:39.177Z,-1.00
2019-01-24T05:22:08.024Z,-0.90
2019-01-24T05:24:37.603Z,-0.90
2019-01-24T05:27:06.445Z,-0.90
2019-01-24T05:29:35.281Z,-0.90
2019-01-24T05:32:04.103Z,-0.90
2019-01-24T05:34:32.933Z,-0.90
2019-01-24T05:37:01.784Z,-1.00
2019-01-24T05:39:30.633Z,-1.00
2019-01-24T05:41:59.479Z,-1.00
2019-01-24T05:44:28.331Z,-0.90
2019-01-24T05:46:57.212Z,-1.00
2019-01-24T05:49:26.068Z,-0.90
2019-01-24T05:51:54.923Z,-0.90
2019-01-24T05:54:23.798Z,-0.90
2019-01-24T05:56:53.387Z,-1.00
2019-01-24T05:59:22.496Z,-1.00
2019-01-24T06:01:51.303Z,-1.00
2019-01-24T06:04:20.157Z,-1.00
2019-01-24T06:06:49.009Z,-1.00
2019-01-24T06:09:17.841Z,-1.00
2019-01-24T06:11:47.423Z,-1.00
2019-01-24T06:14:16.262Z,-0.90
2019-01-24T06:16:45.108Z,-0.90
2019-01-24T06:19:13.954Z,-1.10
2019-01-24T06:21:42.941Z,-1.10
2019-01-24T06:24:11.791Z,-1.10
2019-01-24T06:26:41.379Z,-1.10
2019-01-24T06:29:10.213Z,-1.00
2019-01-24T06:31:39.062Z,-1.10
2019-01-24T06:34:07.925Z,-1.00
2019-01-24T06:36:36.769Z,-1.20
2019-01-24T06:39:06.357Z,-1.20
2019-01-24T06:41:35.365Z,-1.20
2019-01-24T06:44:04.949Z,-1.20
2019-01-24T06:46:33.791Z,-1.20
2019-01-24T06:49:03.944Z,-1.10
2019-01-24T06:51:31.562Z,-1.20
2019-01-24T06:54:00.446Z,-1.10
2019-01-24T06:56:29.264Z,-1.20
2019-01-24T06:58:58.109Z,-1.10
2019-01-24T07:01:26.973Z,-1.10
2019-01-24T07:03:55.797Z,-1.10
2019-01-24T07:06:24.651Z,-1.10
2019-01-24T07:08:53.507Z,-1.20
2019-01-24T07:11:22.345Z,-1.10
2019-01-24T07:13:51.203Z,-1.10
2019-01-24T07:16:20.031Z,-1.00
2019-01-24T07:21:50.676Z,-1.10
2019-01-24T07:24:19.607Z,-1.10
2019-01-24T07:26:48.388Z,-1.00
2019-01-24T07:29:17.237Z,-1.10
2019-01-24T07:31:46.079Z,-1.00
2019-01-24T07:34:14.923Z,-1.10
2019-01-24T07:36:44.504Z,-1.10
2019-01-24T07:39:13.347Z,-1.10
2019-01-24T07:41:42.183Z,-1.10
2019-01-24T07:44:11.029Z,-1.10
2019-01-24T07:46:39.858Z,-1.10
2019-01-24T07:49:08.693Z,-1.00
2019-01-24T07:51:37.545Z,-1.10
2019-01-24T07:54:06.393Z,-1.10
2019-01-24T07:56:35.235Z,-0.90
2019-01-24T07:59:04.077Z,-1.00
2019-01-24T08:01:32.931Z,-1.10
2019-01-24T08:04:02.509Z,-1.10
2019-01-24T08:06:31.357Z,-1.10
2019-01-24T08:09:00.194Z,-1.00
2019-01-24T08:11:29.044Z,-1.00
2019-01-24T08:13:57.914Z,-1.00
2019-01-24T08:16:26.719Z,-1.00
2019-01-24T08:18:55.557Z,-1.00
2019-01-24T08:21:25.151Z,-1.00
2019-01-24T08:23:54.000Z,-0.90
2019-01-24T08:26:22.843Z,-0.80
2019-01-24T08:28:52.423Z,-0.80
2019-01-24T08:31:21.252Z,-0.80
2019-01-24T08:33:50.094Z,-0.90
2019-01-24T08:36:18.931Z,-0.90
2019-01-24T08:38:47.778Z,-0.90
2019-01-24T08:41:16.610Z,-0.90
2019-01-24T08:43:45.447Z,-0.90
2019-01-24T08:46:14.300Z,-0.90
2019-01-24T08:48:43.142Z,-1.00
2019-01-24T08:53:42.152Z,-0.90
2019-01-24T08:56:10.997Z,-0.80
2019-01-24T08:58:39.850Z,-0.70
2019-01-24T09:01:09.449Z,-0.70
2019-01-24T09:03:39.021Z,-0.60
2019-01-24T09:06:07.856Z,-0.70
2019-01-24T09:08:36.704Z,-0.70
2019-01-24T09:11:05.551Z,-0.60
2019-01-24T09:13:34.387Z,-0.60
2019-01-24T09:16:03.238Z,-0.60
2019-01-24T09:18:32.090Z,-0.60
2019-01-24T09:21:00.936Z,-0.50
2019-01-24T09:23:29.769Z,-0.50
2019-01-24T09:25:59.391Z,-0.40
2019-01-24T09:28:28.994Z,-0.30
2019-01-24T09:30:57.824Z,-0.40
2019-01-24T09:33:26.663Z,-0.40
2019-01-24T09:35:55.503Z,-0.50
2019-01-24T09:38:24.346Z,-0.60
2019-01-24T09:40:53.954Z,-0.50
2019-01-24T09:43:23.546Z,-0.60
2019-01-24T09:45:52.380Z,-0.60
2019-01-24T09:48:21.211Z,-0.70
2019-01-24T09:50:50.066Z,-0.70
2019-01-24T09:53:18.903Z,-0.70
2019-01-24T09:55:47.763Z,-0.60
2019-01-24T09:58:16.609Z,-0.70
2019-01-24T10:00:45.455Z,-0.80
2019-01-24T10:03:14.306Z,-0.80
2019-01-24T10:05:43.156Z,-0.80
2019-01-24T10:08:12.739Z,-0.80
2019-01-24T10:10:41.593Z,-0.70
2019-01-24T10:13:10.450Z,-0.70
2019-01-24T10:15:40.023Z,-0.80
2019-01-24T10:18:08.864Z,-0.70
2019-01-24T10:20:37.701Z,-0.80
2019-01-24T10:23:06.542Z,-0.80
2019-01-24T10:25:35.393Z,-0.70
2019-01-24T10:28:04.247Z,-0.80
2019-01-24T10:30:33.094Z,-0.80
2019-01-24T10:33:01.949Z,-0.80
2019-01-24T10:35:30.782Z,-0.80
2019-01-24T10:37:59.667Z,-0.80
2019-01-24T10:40:28.579Z,-0.90
2019-01-24T10:42:57.423Z,-1.00
2019-01-24T10:45:27.017Z,-0.90
2019-01-24T10:47:55.857Z,-0.70
2019-01-24T10:50:26.331Z,-0.60
2019-01-24T10:52:55.180Z,-0.70
2019-01-24T10:55:24.028Z,-0.60
2019-01-24T10:57:52.882Z,-0.50
2019-01-24T11:00:25.714Z,-0.50
2019-01-24T11:02:55.293Z,-0.50
2019-01-24T11:05:24.145Z,-0.50
2019-01-24T11:07:53.003Z,-0.60
2019-01-24T11:10:21.845Z,-0.60
2019-01-24T11:12:50.685Z,-0.10
2019-01-24T11:15:19.533Z,-0.10
2019-01-24T11:17:48.373Z,0.00
2019-01-24T11:20:17.254Z,-0.10
2019-01-24T11:22:46.069Z,0.10
2019-01-24T11:25:14.930Z,0.00
2019-01-24T11:27:43.775Z,0.40
2019-01-24T11:30:12.623Z,0.00
2019-01-24T11:32:41.466Z,-0.20
2019-01-24T11:35:10.325Z,-0.40
2019-01-24T11:37:39.157Z,-0.40
2019-01-24T11:40:08.007Z,-0.40
2019-01-24T11:42:36.858Z,-0.40
2019-01-24T11:45:05.702Z,-0.50
2019-01-24T11:47:34.563Z,-0.50
2019-01-24T11:50:03.401Z,-0.50
2019-01-24T11:52:32.991Z,-0.60
2019-01-24T11:55:01.829Z,-0.40
2019-01-24T11:57:30.680Z,-0.20
2019-01-24T11:59:59.521Z,-0.20
2019-01-24T12:02:28.383Z,-0.30
2019-01-24T12:04:57.235Z,-0.30
2019-01-24T12:07:26.096Z,-0.30
2019-01-24T12:09:54.935Z,-0.40
2019-01-24T12:12:24.523Z,-0.40
2019-01-24T12:14:53.381Z,-0.40
2019-01-24T12:17:22.227Z,-0.40
2019-01-24T12:19:51.811Z,-0.40
2019-01-24T12:22:20.643Z,-0.40
2019-01-24T12:24:49.483Z,-0.40
2019-01-24T12:27:18.322Z,-0.30
2019-01-24T12:29:47.157Z,-0.20
2019-01-24T12:32:16.010Z,-0.30
2019-01-24T12:34:44.852Z,-0.30
2019-01-24T12:37:13.709Z,-0.40
2019-01-24T12:39:42.543Z,-0.30
2019-01-24T12:42:11.397Z,-0.30
2019-01-24T12:44:40.261Z,-0.40
2019-01-24T12:47:09.107Z,-0.30
2019-01-24T12:49:38.693Z,-0.40
2019-01-24T12:52:07.576Z,-0.40
2019-01-24T12:54:36.373Z,-0.30
2019-01-24T12:57:05.461Z,-0.30
2019-01-24T12:59:34.071Z,-0.30
2019-01-24T13:02:02.883Z,-0.40
2019-01-24T13:04:31.722Z,-0.30
2019-01-24T13:07:00.570Z,-0.20
2019-01-24T13:09:29.409Z,-0.10
2019-01-24T13:11:58.257Z,-0.20
2019-01-24T13:14:27.094Z,-0.30
2019-01-24T13:16:55.948Z,-0.30
2019-01-24T13:19:24.791Z,-0.30
2019-01-24T13:21:53.687Z,-0.30
2019-01-24T13:24:22.533Z,-0.40
2019-01-24T13:29:21.547Z,-0.40
2019-01-24T13:31:50.418Z,-0.40
2019-01-24T13:34:19.276Z,-0.30
2019-01-24T13:36:48.130Z,-0.30
2019-01-24T13:39:17.720Z,-0.30
2019-01-24T13:41:46.580Z,-0.30
2019-01-24T13:44:15.475Z,-0.30
2019-01-24T13:46:45.029Z,-0.40
2019-01-24T13:49:14.617Z,-0.40
2019-01-24T13:51:43.473Z,-0.50
2019-01-24T13:54:12.314Z,-0.50
2019-01-24T13:56:41.903Z,-0.50
2019-01-24T14:01:40.209Z,-0.50
2019-01-24T14:04:09.051Z,-0.60
2019-01-24T14:06:37.897Z,-0.50
2019-01-24T14:09:07.578Z,-0.60
2019-01-24T14:11:36.451Z,-0.60
2019-01-24T14:14:05.319Z,-0.60
2019-01-24T14:16:34.154Z,-0.60
2019-01-24T14:19:03.005Z,-0.60
2019-01-24T14:21:32.046Z,-0.50
2019-01-24T14:24:01.647Z,-0.40
2019-01-24T14:26:30.514Z,-0.40
2019-01-24T14:28:59.351Z,-0.40
2019-01-24T14:31:28.207Z,-0.40
2019-01-24T14:33:57.055Z,-0.40
2019-01-24T14:36:25.901Z,-0.30
2019-01-24T14:38:55.483Z,-0.30
2019-01-24T14:41:24.345Z,-0.30
2019-01-24T14:43:53.189Z,-0.40
2019-01-24T14:46:22.019Z,-0.40
2019-01-24T14:48:50.866Z,-0.40
2019-01-24T14:51:20.460Z,-0.50
2019-01-24T14:53:50.083Z,-0.50
2019-01-24T14:56:18.925Z,-0.50
2019-01-24T14:58:47.757Z,-0.50
2019-01-24T15:01:17.341Z,-0.50
2019-01-24T15:03:46.189Z,-0.50
2019-01-24T15:06:15.040Z,-0.50
2019-01-24T15:08:43.887Z,-0.50
2019-01-24T15:11:12.717Z,-0.60
2019-01-24T15:13:42.308Z,-0.60
2019-01-24T15:16:11.147Z,-0.50
2019-01-24T15:18:39.999Z,-0.60
2019-01-24T15:21:08.850Z,-0.60
2019-01-24T15:23:37.696Z,-0.50
2019-01-24T15:26:06.557Z,-0.40
2019-01-24T15:28:35.535Z,-0.40
2019-01-24T15:31:05.114Z,-0.40
2019-01-24T15:33:33.953Z,-0.40
2019-01-24T15:36:04.468Z,-0.40
2019-01-24T15:38:33.326Z,-0.40
2019-01-24T15:41:02.160Z,-0.30
2019-01-24T15:43:31.002Z,-0.30
2019-01-24T15:45:59.843Z,-0.40
2019-01-24T15:48:30.141Z,-0.40
2019-01-24T15:50:59.095Z,-0.50
2019-01-24T15:53:27.855Z,-0.40
2019-01-24T15:55:57.437Z,-0.50
2019-01-24T15:58:26.285Z,-0.40
2019-01-24T16:00:55.132Z,-0.50
2019-01-24T16:03:24.729Z,-0.50
2019-01-24T16:05:53.578Z,-0.50
2019-01-24T16:08:22.417Z,-0.50
2019-01-24T16:10:52.191Z,-0.60
2019-01-24T16:13:21.043Z,-0.60
2019-01-24T16:15:49.884Z,-0.50
2019-01-24T16:18:18.738Z,-0.60
2019-01-24T16:20:47.597Z,-0.50
2019-01-24T16:23:16.455Z,-0.50
2019-01-24T16:25:45.309Z,-0.60
2019-01-24T16:28:14.147Z,-0.60
2019-01-24T16:30:43.012Z,-0.60
2019-01-24T16:33:12.045Z,-0.50
2019-01-24T16:35:40.894Z,-0.50
2019-01-24T16:38:09.901Z,-0.60
2019-01-24T16:40:38.630Z,-0.60
2019-01-24T16:43:07.469Z,-0.60
2019-01-24T16:45:37.529Z,-0.60
2019-01-24T16:48:05.201Z,-0.60
2019-01-24T16:50:34.056Z,-0.60
2019-01-24T16:53:03.673Z,-0.70
2019-01-24T16:55:32.523Z,-0.70
2019-01-24T16:58:01.354Z,-0.70
2019-01-24T17:00:30.256Z,-0.70
2019-01-24T17:02:59.057Z,-0.70
2019-01-24T17:05:27.911Z,-0.70
2019-01-24T17:07:56.748Z,-0.70
2019-01-24T17:10:25.584Z,-0.70
2019-01-24T17:12:55.270Z,-0.70
2019-01-24T17:15:24.108Z,-0.70
2019-01-24T17:17:52.947Z,-0.60
2019-01-24T17:20:22.721Z,-0.60
2019-01-24T17:22:51.564Z,-0.60
2019-01-24T17:25:21.153Z,-0.60
2019-01-24T17:27:49.991Z,-0.50
2019-01-24T17:30:19.585Z,-0.50
2019-01-24T17:32:49.176Z,-0.50
2019-01-24T17:35:18.033Z,-0.60
2019-01-24T17:37:46.949Z,-0.60
2019-01-24T17:40:23.133Z,-0.60
2019-01-24T17:42:51.986Z,-0.70
2019-01-24T17:45:20.820Z,-0.60
2019-01-24T17:47:49.674Z,-0.60
2019-01-24T17:50:18.526Z,-0.60
2019-01-24T17:52:47.392Z,-0.60
2019-01-24T17:55:25.979Z,-0.60
2019-01-24T17:57:55.573Z,-0.70
2019-01-24T18:00:24.466Z,-0.70
2019-01-24T18:02:53.283Z,-0.60
2019-01-24T18:05:22.187Z,-0.60
2019-01-24T18:07:50.968Z,-0.60
2019-01-24T18:10:22.599Z,-0.60
2019-01-24T18:12:51.498Z,-0.70
2019-01-24T18:15:24.309Z,-0.60
2019-01-24T18:17:53.152Z,-0.60
2019-01-24T18:20:22.013Z,-0.60
2019-01-24T18:22:50.865Z,-0.60
2019-01-24T18:25:19.696Z,-0.70
2019-01-24T18:27:48.533Z,-0.70
2019-01-24T18:30:23.204Z,-0.70
2019-01-24T18:32:52.026Z,-0.80
2019-01-24T18:35:21.607Z,-0.80
2019-01-24T18:37:50.527Z,-0.60
2019-01-24T18:40:23.407Z,-0.70
2019-01-24T18:42:52.229Z,-0.60
2019-01-24T18:45:22.712Z,-0.60
2019-01-24T18:47:51.569Z,-0.80
2019-01-24T18:50:20.467Z,-0.80
2019-01-24T18:52:49.279Z,-0.70
2019-01-24T18:55:18.150Z,-0.70
2019-01-24T18:57:47.009Z,-0.70
2019-01-24T19:00:17.709Z,-0.80
2019-01-24T19:02:47.311Z,-1.10
2019-01-24T19:05:16.172Z,-1.00
2019-01-24T19:07:45.020Z,-0.90
2019-01-24T19:10:13.892Z,-0.80
2019-01-24T19:12:42.783Z,-0.80
2019-01-24T19:15:13.343Z,-0.80
2019-01-24T19:17:42.194Z,-0.80
2019-01-24T19:20:11.028Z,-0.90
2019-01-24T19:22:39.887Z,-0.80
2019-01-24T19:25:10.641Z,-0.80
2019-01-24T19:27:39.503Z,-0.90
2019-01-24T19:30:16.175Z,-1.00
2019-01-24T19:32:45.757Z,-1.00
2019-01-24T19:35:14.620Z,-1.00
2019-01-24T19:37:43.476Z,-1.00
2019-01-24T19:40:14.253Z,-1.00
2019-01-24T19:42:43.064Z,-1.10
2019-01-24T19:45:11.955Z,-1.00
2019-01-24T19:47:40.775Z,-1.00
2019-01-24T19:50:09.630Z,-0.90
2019-01-24T19:52:38.547Z,-0.90
2019-01-24T19:57:36.824Z,-0.90
2019-01-24T20:02:53.540Z,-0.90
2019-01-24T20:05:22.417Z,-0.90
2019-01-24T20:07:51.309Z,-0.80
2019-01-24T20:10:22.071Z,-0.70
2019-01-24T20:12:50.891Z,-0.70
2019-01-24T20:15:19.741Z,-0.80
2019-01-24T20:17:49.595Z,-0.80
2019-01-24T20:20:17.467Z,-0.80
2019-01-24T20:22:46.318Z,-0.80
2019-01-24T20:25:16.083Z,-0.80
2019-01-24T20:27:44.923Z,-0.90
2019-01-24T20:30:18.503Z,-0.90
2019-01-24T20:32:47.355Z,-0.90
2019-01-24T20:35:17.128Z,-0.90
2019-01-24T20:37:46.000Z,-0.90
2019-01-24T20:40:15.643Z,-1.00
2019-01-24T20:42:44.457Z,-1.20
2019-01-24T20:45:13.321Z,-1.30
2019-01-24T20:47:42.169Z,-1.20
2019-01-24T20:50:13.734Z,-1.30
2019-01-24T20:52:42.597Z,-1.30
2019-01-24T20:55:12.247Z,-1.30
2019-01-24T20:57:44.625Z,-1.30
2019-01-24T21:00:17.067Z,-1.30
2019-01-24T21:02:45.864Z,-1.30
2019-01-24T21:05:15.509Z,-1.30
2019-01-24T21:07:44.377Z,-1.20
2019-01-24T21:10:14.678Z,-1.20
2019-01-24T21:12:44.286Z,-1.30
2019-01-24T21:15:13.148Z,-1.20
2019-01-24T21:17:42.003Z,-1.10
2019-01-24T21:20:10.837Z,-1.10
2019-01-24T21:22:39.698Z,-1.10
2019-01-24T21:25:08.572Z,-1.10
2019-01-24T21:27:37.393Z,-1.20
2019-01-24T21:30:07.193Z,-1.20
2019-01-24T21:32:36.005Z,-1.30
2019-01-24T21:35:04.863Z,-1.20
2019-01-24T21:37:33.715Z,-1.20
2019-01-24T21:40:03.676Z,-1.20
2019-01-24T21:42:31.415Z,-1.20
2019-01-24T21:45:00.317Z,-1.10
2019-01-24T21:47:29.175Z,-1.10
2019-01-24T21:49:58.725Z,-1.10
2019-01-24T21:52:27.587Z,-1.20
2019-01-24T21:54:56.444Z,-1.20
2019-01-24T21:57:26.047Z,-1.20
2019-01-24T21:59:55.699Z,-1.30
2019-01-24T22:02:24.552Z,-1.30
2019-01-24T22:04:54.142Z,-1.30
2019-01-24T22:07:23.736Z,-1.30
2019-01-24T22:12:22.753Z,-1.20
2019-01-24T22:14:52.333Z,-1.20
2019-01-24T22:17:21.177Z,-1.20
2019-01-24T22:19:50.020Z,-1.20
2019-01-24T22:22:18.863Z,-1.30
2019-01-24T22:24:47.726Z,-1.30
2019-01-24T22:27:16.620Z,-1.20
2019-01-24T22:29:45.439Z,-1.10
2019-01-24T22:32:14.316Z,-1.20
2019-01-24T22:34:43.324Z,-1.10
2019-01-24T22:37:12.043Z,-1.10
2019-01-24T22:39:40.888Z,-1.20
2019-01-24T22:42:09.765Z,-1.20
2019-01-24T22:44:38.635Z,-1.10
2019-01-24T22:47:07.476Z,-1.10
2019-01-24T22:49:36.381Z,-1.20
2019-01-24T22:52:05.196Z,-1.20
2019-01-24T22:54:34.032Z,-1.10
2019-01-24T22:57:02.884Z,-1.10
2019-01-24T22:59:32.525Z,-1.10
2019-01-24T23:02:01.380Z,-1.00
2019-01-24T23:04:30.976Z,-1.00
2019-01-24T23:06:59.820Z,-1.00
2019-01-24T23:09:28.656Z,-1.00
2019-01-24T23:11:58.270Z,-1.00
2019-01-24T23:14:27.870Z,-0.90
2019-01-24T23:16:56.708Z,-0.90
2019-01-24T23:19:25.550Z,-0.90
2019-01-24T23:21:55.146Z,-1.00
2019-01-24T23:24:24.770Z,-1.00
2019-01-24T23:26:53.591Z,-0.90
2019-01-24T23:29:22.446Z,-0.90
2019-01-24T23:31:51.302Z,-1.00
2019-01-24T23:34:20.136Z,-0.90
2019-01-24T23:36:49.738Z,-0.90
2019-01-24T23:39:19.324Z,-1.00
2019-01-24T23:41:48.198Z,-1.00
2019-01-24T23:44:17.006Z,-1.00
2019-01-24T23:46:45.851Z,-1.00
2019-01-24T23:49:14.701Z,-1.00
2019-01-24T23:51:44.290Z,-1.10
2019-01-24T23:56:42.563Z,-1.10
2019-01-24T23:59:11.409Z,-1.30
